createdAt,value
2022-10-05T00:00:20.810Z,5.95
2022-10-05T00:03:11.931Z,6.45
2022-10-05T00:05:39.130Z,5.82
2022-10-05T00:08:19.043Z,6.90
2022-10-05T00:10:46.810Z,6.95
2022-10-05T00:13:22.209Z,6.65
2022-10-05T00:15:50.197Z,6.32
2022-10-05T00:18:21.892Z,6.90
2022-10-05T00:20:49.511Z,6.90
2022-10-05T00:23:30.191Z,6.50
2022-10-05T00:26:23.048Z,7.50
2022-10-05T00:28:50.969Z,7.18
2022-10-05T00:31:26.446Z,7.32
2022-10-05T00:33:55.132Z,6.43
2022-10-05T00:36:22.602Z,7.18
2022-10-05T00:38:49.685Z,6.55
2022-10-05T00:41:31.873Z,6.82
2022-10-05T00:44:08.550Z,7.97
2022-10-05T00:47:06.619Z,6.85
2022-10-05T00:49:33.789Z,7.30
2022-10-05T00:52:38.386Z,7.78
2022-10-05T00:55:39.229Z,8.00
2022-10-05T00:58:24.410Z,8.73
2022-10-05T01:01:07.775Z,9.30
2022-10-05T01:03:39.786Z,8.93
2022-10-05T01:06:11.959Z,9.98
2022-10-05T01:09:17.962Z,9.32
2022-10-05T01:11:54.762Z,9.83
2022-10-05T01:14:50.481Z,10.75
2022-10-05T01:17:38.885Z,9.60
2022-10-05T01:20:20.044Z,9.80
2022-10-05T01:23:15.253Z,9.43
2022-10-05T01:26:31.910Z,9.43
2022-10-05T01:29:20.948Z,10.82
2022-10-05T01:32:05.558Z,9.82
2022-10-05T01:34:40.876Z,10.20
2022-10-05T01:37:24.840Z,9.90
2022-10-05T01:40:05.246Z,9.77
2022-10-05T01:43:09.985Z,10.68
2022-10-05T01:46:09.817Z,11.40
2022-10-05T01:49:21.875Z,10.80
2022-10-05T01:51:58.054Z,11.02
2022-10-05T01:55:02.561Z,10.80
2022-10-05T01:57:51.604Z,10.43
2022-10-05T02:00:19.976Z,11.05
2022-10-05T02:03:14.193Z,10.65
2022-10-05T02:05:53.392Z,11.32
2022-10-05T02:08:32.411Z,11.13
2022-10-05T02:11:03.708Z,11.23
2022-10-05T02:13:35.318Z,11.10
2022-10-05T02:16:14.942Z,12.13
2022-10-05T02:19:01.962Z,11.02
2022-10-05T02:21:33.468Z,11.32
2022-10-05T02:24:07.011Z,10.75
2022-10-05T02:26:36.821Z,10.70
2022-10-05T02:29:08.199Z,10.57
2022-10-05T02:31:45.776Z,11.20
2022-10-05T02:34:40.890Z,11.15
2022-10-05T02:37:34.896Z,11.95
2022-10-05T02:40:05.289Z,11.50
2022-10-05T02:42:56.099Z,10.80
2022-10-05T02:45:42.742Z,11.90
2022-10-05T02:48:31.332Z,11.38
2022-10-05T02:51:07.072Z,11.70
2022-10-05T02:53:52.281Z,11.35
2022-10-05T02:56:22.532Z,10.90
2022-10-05T02:59:00.065Z,10.73
2022-10-05T03:01:34.508Z,10.73
2022-10-05T03:04:24.728Z,10.70
2022-10-05T03:07:26.017Z,11.40
2022-10-05T03:10:01.372Z,12.27
2022-10-05T03:12:51.587Z,12.18
2022-10-05T03:15:42.787Z,11.18
2022-10-05T03:18:30.748Z,11.55
2022-10-05T03:21:22.024Z,12.77
2022-10-05T03:24:17.509Z,12.88
2022-10-05T03:26:53.660Z,11.98
2022-10-05T03:29:38.584Z,12.27
2022-10-05T03:32:25.613Z,12.10
2022-10-05T03:35:17.099Z,13.00
2022-10-05T03:37:51.828Z,11.38
2022-10-05T03:40:34.951Z,14.00
2022-10-05T03:43:35.685Z,13.55
2022-10-05T03:46:30.444Z,12.77
2022-10-05T03:49:21.662Z,13.18
2022-10-05T03:51:59.072Z,12.55
2022-10-05T03:54:33.648Z,13.20
2022-10-05T03:57:08.708Z,13.57
2022-10-05T03:59:44.999Z,12.57
2022-10-05T04:03:00.248Z,12.82
2022-10-05T04:05:33.595Z,13.32
2022-10-05T04:08:10.093Z,13.00
2022-10-05T04:10:52.856Z,12.70
2022-10-05T04:13:27.384Z,13.20
2022-10-05T04:16:02.152Z,13.60
2022-10-05T04:18:48.193Z,12.73
2022-10-05T04:21:28.546Z,12.90
2022-10-05T04:24:34.344Z,12.68
2022-10-05T04:27:13.646Z,13.25
2022-10-05T04:30:02.243Z,13.55
2022-10-05T04:32:39.887Z,13.52
2022-10-05T04:35:39.055Z,14.18
2022-10-05T04:38:18.299Z,13.00
2022-10-05T04:41:06.096Z,13.80
2022-10-05T04:43:54.424Z,14.45
2022-10-05T04:47:05.722Z,14.70
2022-10-05T04:49:59.042Z,14.30
2022-10-05T04:52:32.613Z,13.10
2022-10-05T04:55:06.073Z,13.68
2022-10-05T04:57:58.704Z,12.35
2022-10-05T05:00:35.136Z,13.23
2022-10-05T05:03:50.975Z,12.85
2022-10-05T05:06:43.411Z,12.40
2022-10-05T05:09:43.109Z,12.20
2022-10-05T05:13:04.311Z,11.35
2022-10-05T05:15:43.510Z,10.90
2022-10-05T05:18:35.505Z,11.32
2022-10-05T05:21:36.050Z,10.70
2022-10-05T05:24:03.424Z,10.88
2022-10-05T05:26:56.036Z,12.65
2022-10-05T05:29:42.027Z,10.45
2022-10-05T05:32:09.335Z,10.80
2022-10-05T05:35:07.679Z,10.65
2022-10-05T05:37:54.066Z,10.70
2022-10-05T05:40:47.729Z,11.20
2022-10-05T05:43:57.723Z,11.77
2022-10-05T05:46:51.544Z,11.15
2022-10-05T05:49:31.485Z,12.23
2022-10-05T05:52:03.588Z,12.02
2022-10-05T05:54:44.672Z,10.82
2022-10-05T05:57:19.591Z,10.20
2022-10-05T06:00:05.797Z,9.43
2022-10-05T06:03:13.812Z,8.13
2022-10-05T06:05:47.612Z,7.70
2022-10-05T06:08:33.555Z,7.18
2022-10-05T06:11:31.609Z,7.22
2022-10-05T06:14:04.574Z,8.27
2022-10-05T06:16:40.776Z,7.68
2022-10-05T06:19:12.300Z,7.15
2022-10-05T06:21:48.045Z,7.03
2022-10-05T06:24:25.775Z,6.25
2022-10-05T06:27:26.285Z,5.25
2022-10-05T06:30:03.562Z,5.15
2022-10-05T06:32:35.099Z,5.35
2022-10-05T06:35:17.705Z,5.38
2022-10-05T06:37:48.715Z,5.20
2022-10-05T06:40:31.638Z,4.65
2022-10-05T06:43:08.246Z,4.63
2022-10-05T06:46:13.818Z,4.50
2022-10-05T06:49:21.567Z,4.72
2022-10-05T06:52:21.117Z,5.10
2022-10-05T06:54:57.939Z,4.63
2022-10-05T06:57:51.446Z,4.35
2022-10-05T07:00:25.053Z,4.05
2022-10-05T07:03:10.560Z,4.32
2022-10-05T07:05:57.579Z,4.80
2022-10-05T07:08:39.172Z,4.63
2022-10-05T07:11:12.007Z,4.20
2022-10-05T07:13:59.093Z,4.80
2022-10-05T07:16:36.758Z,5.20
2022-10-05T07:19:29.343Z,4.85
2022-10-05T07:22:21.100Z,4.43
2022-10-05T07:25:06.035Z,4.55
2022-10-05T07:27:42.864Z,4.53
2022-10-05T07:30:13.506Z,4.40
2022-10-05T07:33:09.456Z,3.80
2022-10-05T07:36:35.771Z,3.33
2022-10-05T07:39:17.265Z,3.50
2022-10-05T07:42:05.033Z,3.42
2022-10-05T07:44:43.854Z,3.88
2022-10-05T07:47:23.671Z,3.30
2022-10-05T07:50:02.551Z,2.97
2022-10-05T07:52:40.315Z,3.58
2022-10-05T07:55:20.529Z,3.20
2022-10-05T07:58:13.169Z,3.38
2022-10-05T08:00:47.809Z,3.35
2022-10-05T08:03:28.330Z,3.25
2022-10-05T08:05:57.874Z,3.80
2022-10-05T08:08:36.012Z,4.15
2022-10-05T08:11:13.640Z,4.47
2022-10-05T08:13:50.004Z,4.25
2022-10-05T08:16:18.523Z,3.83
2022-10-05T08:18:59.849Z,4.03
2022-10-05T08:22:02.019Z,4.13
2022-10-05T08:24:44.472Z,4.30
2022-10-05T08:27:49.615Z,4.20
2022-10-05T08:30:17.152Z,4.20
2022-10-05T08:32:59.091Z,4.43
2022-10-05T08:35:44.313Z,4.55
2022-10-05T08:38:24.223Z,4.65
2022-10-05T08:41:11.482Z,4.20
2022-10-05T08:43:44.713Z,4.10
2022-10-05T08:46:14.745Z,4.57
2022-10-05T08:49:00.239Z,5.00
2022-10-05T08:51:49.591Z,4.75
2022-10-05T08:54:39.216Z,5.43
2022-10-05T08:57:53.521Z,5.47
2022-10-05T09:00:23.649Z,5.28
2022-10-05T09:02:59.819Z,5.80
2022-10-05T09:05:56.534Z,6.00
2022-10-05T09:08:49.221Z,6.38
2022-10-05T09:11:51.655Z,5.32
2022-10-05T09:15:07.135Z,5.80
2022-10-05T09:18:15.053Z,5.43
2022-10-05T09:20:53.195Z,5.55
2022-10-05T09:23:42.990Z,5.05
2022-10-05T09:26:44.609Z,4.93
2022-10-05T09:29:42.571Z,4.70
2022-10-05T09:32:25.175Z,4.75
2022-10-05T09:35:01.544Z,4.68
2022-10-05T09:37:49.509Z,4.00
2022-10-05T09:40:22.763Z,4.20
2022-10-05T09:43:05.002Z,4.25
2022-10-05T09:45:53.685Z,4.55
2022-10-05T09:48:37.763Z,4.47
2022-10-05T09:51:23.348Z,4.00
2022-10-05T09:54:20.116Z,3.58
2022-10-05T09:57:08.907Z,3.90
2022-10-05T09:59:42.390Z,3.55
2022-10-05T10:02:26.613Z,3.40
2022-10-05T10:05:31.633Z,3.42
2022-10-05T10:08:25.138Z,3.70
2022-10-05T10:11:08.667Z,4.05
2022-10-05T10:13:45.762Z,3.17
2022-10-05T10:16:27.322Z,3.30
2022-10-05T10:19:26.962Z,3.70
2022-10-05T10:22:01.898Z,3.25
2022-10-05T10:24:47.785Z,3.83
2022-10-05T10:27:17.973Z,3.72
2022-10-05T10:30:06.881Z,3.25
2022-10-05T10:32:51.622Z,3.60
2022-10-05T10:35:43.742Z,3.40
2022-10-05T10:38:22.435Z,3.63
2022-10-05T10:41:11.622Z,3.20
2022-10-05T10:43:41.195Z,3.03
2022-10-05T10:46:26.395Z,3.08
2022-10-05T10:49:10.599Z,3.20
2022-10-05T10:52:12.552Z,3.20
2022-10-05T10:55:11.020Z,3.78
2022-10-05T10:58:02.344Z,2.80
2022-10-05T11:00:50.060Z,2.92
2022-10-05T11:03:29.459Z,3.13
2022-10-05T11:06:17.337Z,2.85
2022-10-05T11:09:09.790Z,2.60
2022-10-05T11:11:59.017Z,2.80
2022-10-05T11:14:53.191Z,2.70
2022-10-05T11:17:31.856Z,3.00
2022-10-05T11:20:25.758Z,2.85
2022-10-05T11:23:40.858Z,2.72
2022-10-05T11:26:20.160Z,2.63
2022-10-05T11:28:56.368Z,3.03
2022-10-05T11:31:53.579Z,2.60
2022-10-05T11:34:54.672Z,2.70
2022-10-05T11:37:48.984Z,2.90
2022-10-05T11:40:49.806Z,2.75
2022-10-05T11:43:20.009Z,3.33
2022-10-05T11:45:50.025Z,3.20
2022-10-05T11:48:42.723Z,2.80
2022-10-05T11:51:29.670Z,2.90
2022-10-05T11:54:18.048Z,2.72
2022-10-05T11:57:06.484Z,3.38
2022-10-05T11:59:51.207Z,2.97
2022-10-05T12:02:56.407Z,2.65
2022-10-05T12:05:49.228Z,3.30
2022-10-05T12:08:28.770Z,2.83
2022-10-05T12:11:14.491Z,2.75
2022-10-05T12:13:56.086Z,3.25
2022-10-05T12:16:28.885Z,2.75
2022-10-05T12:19:03.385Z,2.58
2022-10-05T12:21:43.491Z,2.97
2022-10-05T12:24:28.662Z,2.80
2022-10-05T12:27:01.140Z,2.33
2022-10-05T12:29:49.477Z,2.70
2022-10-05T12:32:17.825Z,2.90
2022-10-05T12:34:45.058Z,2.75
2022-10-05T12:37:24.402Z,2.97
2022-10-05T12:40:02.678Z,2.70
2022-10-05T12:42:40.881Z,2.85
2022-10-05T12:45:19.977Z,2.92
2022-10-05T12:47:53.663Z,7.40
2022-10-05T12:50:30.673Z,2.40
2022-10-05T12:53:22.534Z,2.67
2022-10-05T12:56:10.151Z,3.22
2022-10-05T12:58:51.263Z,3.55
2022-10-05T13:01:34.389Z,2.40
2022-10-05T13:04:17.550Z,2.50
2022-10-05T13:06:56.372Z,2.50
2022-10-05T13:09:32.117Z,2.90
2022-10-05T13:12:08.279Z,2.30
2022-10-05T13:15:07.502Z,2.70
2022-10-05T13:17:46.092Z,2.40
2022-10-05T13:20:22.772Z,1.92
2022-10-05T13:23:08.381Z,2.63
2022-10-05T13:25:40.188Z,2.05
2022-10-05T13:28:15.500Z,2.50
2022-10-05T13:30:57.158Z,2.58
2022-10-05T13:33:43.228Z,2.08
2022-10-05T13:39:05.786Z,3.00
2022-10-05T13:41:55.206Z,2.70
2022-10-05T13:44:30.823Z,2.42
2022-10-05T13:49:55.486Z,2.97
2022-10-05T13:52:50.875Z,3.10
2022-10-05T13:55:38.035Z,2.60
2022-10-05T13:58:12.161Z,2.63
2022-10-05T14:01:09.306Z,3.03
2022-10-05T14:03:38.198Z,2.60
2022-10-05T14:06:12.768Z,3.13
2022-10-05T14:08:52.562Z,2.70
2022-10-05T14:11:47.335Z,2.63
2022-10-05T14:14:25.746Z,2.63
2022-10-05T14:16:55.948Z,2.80
2022-10-05T14:19:48.308Z,2.75
2022-10-05T14:22:22.833Z,2.38
2022-10-05T14:25:22.123Z,2.50
2022-10-05T14:27:58.273Z,2.30
2022-10-05T14:30:31.079Z,2.60
2022-10-05T14:33:04.055Z,3.15
2022-10-05T14:35:44.034Z,2.70
2022-10-05T14:38:20.479Z,2.53
2022-10-05T14:41:14.843Z,2.67
2022-10-05T14:44:09.231Z,2.47
2022-10-05T14:46:37.626Z,2.70
2022-10-05T14:49:21.756Z,2.30
2022-10-05T14:51:53.518Z,2.45
2022-10-05T14:54:23.826Z,2.50
2022-10-05T14:56:58.929Z,2.47
2022-10-05T14:59:43.842Z,2.70
2022-10-05T15:02:29.275Z,2.40
2022-10-05T15:05:16.497Z,2.67
2022-10-05T15:07:47.883Z,2.70
2022-10-05T15:10:29.735Z,2.30
2022-10-05T15:13:11.835Z,2.80
2022-10-05T15:15:45.164Z,2.50
2022-10-05T15:18:39.644Z,2.90
2022-10-05T15:21:33.151Z,2.88
2022-10-05T15:24:24.423Z,2.50
2022-10-05T15:26:56.621Z,2.63
2022-10-05T15:29:52.021Z,2.95
2022-10-05T15:32:42.259Z,2.60
2022-10-05T15:35:46.207Z,2.55
2022-10-05T15:38:20.933Z,2.90
2022-10-05T15:40:59.818Z,2.80
2022-10-05T15:43:40.066Z,3.03
2022-10-05T15:46:23.457Z,3.08
2022-10-05T15:49:08.575Z,2.75
2022-10-05T15:51:42.378Z,2.60
2022-10-05T15:54:37.306Z,3.33
2022-10-05T15:57:34.137Z,3.08
2022-10-05T16:00:17.665Z,2.60
2022-10-05T16:03:09.629Z,3.03
2022-10-05T16:06:33.736Z,3.40
2022-10-05T16:09:21.460Z,2.78
2022-10-05T16:11:59.164Z,3.25
2022-10-05T16:14:57.469Z,2.95
2022-10-05T16:18:06.137Z,2.83
2022-10-05T16:20:50.077Z,3.30
2022-10-05T16:24:12.278Z,2.90
2022-10-05T16:26:59.533Z,3.33
2022-10-05T16:29:36.133Z,3.70
2022-10-05T16:32:12.702Z,3.65
2022-10-05T16:35:08.815Z,3.42
2022-10-05T16:37:50.741Z,3.80
2022-10-05T16:40:22.874Z,3.65
2022-10-05T16:43:02.091Z,3.40
2022-10-05T16:45:45.717Z,3.58
2022-10-05T16:48:19.793Z,3.58
2022-10-05T16:51:24.499Z,3.35
2022-10-05T16:54:18.335Z,3.50
2022-10-05T16:56:54.835Z,3.47
2022-10-05T16:59:59.496Z,3.25
2022-10-05T17:02:51.159Z,4.00
2022-10-05T17:05:41.445Z,3.72
2022-10-05T17:08:33.738Z,3.65
2022-10-05T17:11:22.426Z,4.00
2022-10-05T17:14:27.261Z,4.13
2022-10-05T17:17:24.424Z,5.18
2022-10-05T17:20:15.731Z,6.88
2022-10-05T17:22:57.891Z,6.85
2022-10-05T17:25:36.677Z,5.13
2022-10-05T17:28:24.251Z,5.47
2022-10-05T17:31:16.300Z,5.30
2022-10-05T17:34:17.372Z,5.22
2022-10-05T17:36:49.703Z,5.13
2022-10-05T17:39:20.287Z,4.32
2022-10-05T17:41:48.433Z,4.53
2022-10-05T17:44:19.358Z,5.45
2022-10-05T17:46:58.649Z,4.75
2022-10-05T17:50:08.988Z,4.82
2022-10-05T17:52:58.778Z,5.80
2022-10-05T17:55:31.689Z,5.90
2022-10-05T17:58:23.180Z,5.13
2022-10-05T18:00:56.906Z,5.63
2022-10-05T18:03:48.345Z,4.65
2022-10-05T18:06:38.185Z,4.82
2022-10-05T18:09:34.098Z,4.55
2022-10-05T18:12:16.780Z,4.35
2022-10-05T18:15:14.106Z,5.75
2022-10-05T18:17:46.445Z,5.60
2022-10-05T18:20:27.357Z,5.85
2022-10-05T18:23:14.826Z,6.40
2022-10-05T18:25:44.962Z,6.20
2022-10-05T18:28:22.780Z,5.50
2022-10-05T18:31:11.874Z,6.20
2022-10-05T18:33:45.416Z,7.15
2022-10-05T18:36:52.467Z,6.22
2022-10-05T18:39:25.976Z,5.60
2022-10-05T18:42:09.043Z,5.18
2022-10-05T18:44:49.589Z,4.63
2022-10-05T18:47:26.057Z,4.20
2022-10-05T18:50:21.658Z,3.70
2022-10-05T18:53:26.582Z,3.70
2022-10-05T18:56:12.153Z,3.70
2022-10-05T18:59:07.785Z,3.78
2022-10-05T19:01:45.633Z,3.67
2022-10-05T19:04:31.203Z,4.07
2022-10-05T19:07:24.929Z,3.83
2022-10-05T19:10:42.402Z,3.55
2022-10-05T19:13:47.275Z,4.53
2022-10-05T19:16:42.206Z,4.22
2022-10-05T19:19:39.079Z,4.10
2022-10-05T19:24:58.119Z,3.90
2022-10-05T19:28:03.149Z,3.38
2022-10-05T19:31:05.025Z,3.95
2022-10-05T19:33:44.759Z,3.67
2022-10-05T19:36:32.416Z,4.05
2022-10-05T19:39:12.156Z,3.95
2022-10-05T19:41:58.340Z,3.78
2022-10-05T19:47:41.111Z,3.70
2022-10-05T19:50:24.230Z,3.58
2022-10-05T19:53:02.444Z,4.40
2022-10-05T19:55:37.377Z,4.20
2022-10-05T19:58:18.807Z,4.60
2022-10-05T20:01:07.027Z,5.28
2022-10-05T20:03:38.025Z,5.85
2022-10-05T20:06:08.475Z,6.32
2022-10-05T20:08:47.517Z,6.50
2022-10-05T20:11:18.965Z,6.78
2022-10-05T20:13:53.363Z,6.60
2022-10-05T20:16:53.297Z,6.65
2022-10-05T20:19:48.361Z,6.68
2022-10-05T20:22:46.474Z,6.65
2022-10-05T20:25:19.908Z,6.07
2022-10-05T20:27:49.898Z,6.35
2022-10-05T20:30:22.877Z,6.03
2022-10-05T20:32:50.694Z,7.05
2022-10-05T20:35:22.461Z,6.40
2022-10-05T20:37:52.684Z,6.05
2022-10-05T20:40:21.332Z,6.88
2022-10-05T20:42:48.321Z,6.78
2022-10-05T20:45:15.672Z,6.03
2022-10-05T20:47:42.937Z,6.57
2022-10-05T20:50:10.841Z,6.00
2022-10-05T20:52:38.395Z,5.47
2022-10-05T20:55:08.810Z,5.97
2022-10-05T20:57:38.796Z,5.45
2022-10-05T21:00:06.523Z,6.32
2022-10-05T21:02:33.506Z,5.35
2022-10-05T21:05:00.671Z,5.93
2022-10-05T21:07:30.684Z,5.75
2022-10-05T21:09:57.668Z,6.57
2022-10-05T21:12:24.821Z,6.03
2022-10-05T21:14:52.798Z,6.20
2022-10-05T21:17:20.352Z,6.03
2022-10-05T21:19:50.667Z,5.88
2022-10-05T21:22:17.718Z,5.80
2022-10-05T21:24:49.897Z,6.30
2022-10-05T21:27:17.141Z,5.65
2022-10-05T21:29:44.863Z,5.57
2022-10-05T21:32:12.083Z,6.72
2022-10-05T21:34:40.362Z,6.07
2022-10-05T21:37:08.290Z,5.40
2022-10-05T21:39:36.654Z,5.47
2022-10-05T21:42:04.531Z,5.88
2022-10-05T21:44:31.573Z,6.05
2022-10-05T21:46:58.631Z,5.93
2022-10-05T21:49:27.022Z,5.90
2022-10-05T21:51:54.676Z,5.50
2022-10-05T21:54:22.855Z,5.50
2022-10-05T21:56:52.622Z,5.95
2022-10-05T21:59:22.298Z,5.40
2022-10-05T22:01:49.352Z,5.90
2022-10-05T22:04:16.675Z,5.15
2022-10-05T22:06:43.749Z,5.75
2022-10-05T22:09:10.983Z,5.20
2022-10-05T22:11:38.465Z,5.90
2022-10-05T22:14:05.464Z,5.65
2022-10-05T22:16:38.683Z,5.43
2022-10-05T22:19:10.956Z,5.03
2022-10-05T22:21:41.683Z,5.47
2022-10-05T22:24:11.748Z,5.10
2022-10-05T22:26:41.250Z,5.72
2022-10-05T22:29:08.120Z,5.28
2022-10-05T22:31:35.608Z,5.20
2022-10-05T22:34:02.697Z,5.57
2022-10-05T22:36:29.604Z,6.05
2022-10-05T22:38:56.742Z,5.32
2022-10-05T22:41:23.756Z,5.43
2022-10-05T22:43:51.418Z,5.40
2022-10-05T22:46:21.306Z,5.55
2022-10-05T22:48:48.258Z,5.82
2022-10-05T22:51:15.741Z,5.32
2022-10-05T22:53:42.836Z,5.28
2022-10-05T22:56:13.819Z,6.03
2022-10-05T22:58:42.029Z,5.50
2022-10-05T23:01:12.418Z,5.15
2022-10-05T23:03:39.982Z,5.45
2022-10-05T23:06:12.506Z,5.30
2022-10-05T23:08:41.032Z,5.38
2022-10-05T23:11:14.161Z,5.43
2022-10-05T23:13:41.890Z,6.07
2022-10-05T23:16:14.009Z,6.10
2022-10-05T23:18:44.286Z,6.97
2022-10-05T23:21:11.844Z,5.45
2022-10-05T23:23:40.976Z,6.13
2022-10-05T23:26:10.081Z,6.00
2022-10-05T23:28:39.958Z,6.95
2022-10-05T23:31:08.248Z,7.03
2022-10-05T23:33:37.597Z,5.78
2022-10-05T23:36:08.402Z,6.80
2022-10-05T23:38:36.128Z,5.97
2022-10-05T23:41:03.858Z,5.57
2022-10-05T23:43:33.285Z,6.85
2022-10-05T23:46:01.138Z,6.38
2022-10-05T23:48:28.607Z,5.90
2022-10-05T23:50:55.923Z,5.97
2022-10-05T23:53:23.016Z,6.60
2022-10-05T23:55:51.593Z,6.45
2022-10-05T23:58:19.582Z,7.20
